sensor_id;sensor_type;location;lat;lon;timestamp;P1;durP1;ratioP1;P2;durP2;ratioP2
37087;SDS011;23002;52.676;6.432;2023-09-08T00:00:07;10.30;;;5.70;;
37087;SDS011;23002;52.676;6.432;2023-09-08T00:02:35;8.68;;;5.70;;
37087;SDS011;23002;52.676;6.432;2023-09-08T00:05:02;10.32;;;6.53;;
37087;SDS011;23002;52.676;6.432;2023-09-08T00:07:30;9.60;;;5.93;;
37087;SDS011;23002;52.676;6.432;2023-09-08T00:09:57;11.02;;;6.45;;
37087;SDS011;23002;52.676;6.432;2023-09-08T00:12:24;10.00;;;6.22;;
37087;SDS011;23002;52.676;6.432;2023-09-08T00:14:51;10.77;;;6.40;;
37087;SDS011;23002;52.676;6.432;2023-09-08T00:17:18;10.98;;;6.07;;
37087;SDS011;23002;52.676;6.432;2023-09-08T00:19:45;13.70;;;6.70;;
37087;SDS011;23002;52.676;6.432;2023-09-08T00:22:12;11.35;;;6.30;;
37087;SDS011;23002;52.676;6.432;2023-09-08T00:24:40;11.10;;;5.97;;
37087;SDS011;23002;52.676;6.432;2023-09-08T00:27:07;8.60;;;6.32;;
37087;SDS011;23002;52.676;6.432;2023-09-08T00:29:35;9.02;;;5.78;;
37087;SDS011;23002;52.676;6.432;2023-09-08T00:32:03;8.85;;;6.00;;
37087;SDS011;23002;52.676;6.432;2023-09-08T00:34:30;9.10;;;5.90;;
37087;SDS011;23002;52.676;6.432;2023-09-08T00:36:57;10.88;;;6.32;;
37087;SDS011;23002;52.676;6.432;2023-09-08T00:39:26;9.27;;;5.93;;
37087;SDS011;23002;52.676;6.432;2023-09-08T00:41:53;10.88;;;6.63;;
37087;SDS011;23002;52.676;6.432;2023-09-08T00:44:21;13.18;;;6.35;;
37087;SDS011;23002;52.676;6.432;2023-09-08T00:46:48;7.88;;;5.90;;
37087;SDS011;23002;52.676;6.432;2023-09-08T00:49:15;11.07;;;6.38;;
37087;SDS011;23002;52.676;6.432;2023-09-08T00:51:42;9.68;;;6.20;;
37087;SDS011;23002;52.676;6.432;2023-09-08T00:54:10;9.57;;;6.53;;
37087;SDS011;23002;52.676;6.432;2023-09-08T00:56:37;8.68;;;6.28;;
37087;SDS011;23002;52.676;6.432;2023-09-08T00:59:05;8.45;;;6.10;;
37087;SDS011;23002;52.676;6.432;2023-09-08T01:01:32;10.35;;;6.38;;
37087;SDS011;23002;52.676;6.432;2023-09-08T01:04:01;11.38;;;6.13;;
37087;SDS011;23002;52.676;6.432;2023-09-08T01:06:29;9.07;;;6.40;;
37087;SDS011;23002;52.676;6.432;2023-09-08T01:08:57;9.50;;;6.28;;
37087;SDS011;23002;52.676;6.432;2023-09-08T01:11:24;10.52;;;6.70;;
37087;SDS011;23002;52.676;6.432;2023-09-08T01:13:52;11.65;;;6.65;;
37087;SDS011;23002;52.676;6.432;2023-09-08T01:16:19;9.38;;;5.85;;
37087;SDS011;23002;52.676;6.432;2023-09-08T01:18:46;10.30;;;6.57;;
37087;SDS011;23002;52.676;6.432;2023-09-08T01:26:20;10.27;;;6.95;;
37087;SDS011;23002;52.676;6.432;2023-09-08T01:28:49;9.80;;;6.60;;
37087;SDS011;23002;52.676;6.432;2023-09-08T01:31:16;10.07;;;6.78;;
37087;SDS011;23002;52.676;6.432;2023-09-08T01:33:44;13.13;;;7.60;;
37087;SDS011;23002;52.676;6.432;2023-09-08T01:36:12;10.55;;;6.75;;
37087;SDS011;23002;52.676;6.432;2023-09-08T01:38:40;10.98;;;7.30;;
37087;SDS011;23002;52.676;6.432;2023-09-08T01:41:07;10.57;;;6.63;;
37087;SDS011;23002;52.676;6.432;2023-09-08T01:43:35;11.45;;;6.50;;
37087;SDS011;23002;52.676;6.432;2023-09-08T01:46:03;10.15;;;6.72;;
37087;SDS011;23002;52.676;6.432;2023-09-08T01:48:30;11.60;;;7.50;;
37087;SDS011;23002;52.676;6.432;2023-09-08T01:50:57;10.63;;;7.15;;
37087;SDS011;23002;52.676;6.432;2023-09-08T01:53:24;9.10;;;6.75;;
37087;SDS011;23002;52.676;6.432;2023-09-08T01:55:52;13.00;;;7.10;;
37087;SDS011;23002;52.676;6.432;2023-09-08T01:58:19;11.23;;;6.85;;
37087;SDS011;23002;52.676;6.432;2023-09-08T02:00:50;9.10;;;6.38;;
37087;SDS011;23002;52.676;6.432;2023-09-08T02:03:17;9.88;;;6.20;;
37087;SDS011;23002;52.676;6.432;2023-09-08T02:05:45;10.20;;;6.55;;
37087;SDS011;23002;52.676;6.432;2023-09-08T02:08:12;11.98;;;6.85;;
37087;SDS011;23002;52.676;6.432;2023-09-08T02:10:41;8.80;;;6.47;;
37087;SDS011;23002;52.676;6.432;2023-09-08T02:13:08;10.95;;;6.70;;
37087;SDS011;23002;52.676;6.432;2023-09-08T02:15:35;13.25;;;6.93;;
37087;SDS011;23002;52.676;6.432;2023-09-08T02:18:03;12.27;;;7.32;;
37087;SDS011;23002;52.676;6.432;2023-09-08T02:20:30;12.48;;;7.22;;
37087;SDS011;23002;52.676;6.432;2023-09-08T02:22:57;11.23;;;7.05;;
37087;SDS011;23002;52.676;6.432;2023-09-08T02:25:25;12.05;;;7.45;;
37087;SDS011;23002;52.676;6.432;2023-09-08T02:27:52;12.98;;;7.40;;
37087;SDS011;23002;52.676;6.432;2023-09-08T02:30:19;11.80;;;7.53;;
37087;SDS011;23002;52.676;6.432;2023-09-08T02:32:46;13.98;;;8.60;;
37087;SDS011;23002;52.676;6.432;2023-09-08T02:35:13;11.85;;;7.90;;
37087;SDS011;23002;52.676;6.432;2023-09-08T02:37:41;15.65;;;8.63;;
37087;SDS011;23002;52.676;6.432;2023-09-08T02:40:08;11.65;;;7.63;;
37087;SDS011;23002;52.676;6.432;2023-09-08T02:42:36;13.35;;;8.65;;
37087;SDS011;23002;52.676;6.432;2023-09-08T02:45:03;12.13;;;7.95;;
37087;SDS011;23002;52.676;6.432;2023-09-08T02:47:30;14.05;;;8.10;;
37087;SDS011;23002;52.676;6.432;2023-09-08T02:49:57;11.45;;;8.05;;
37087;SDS011;23002;52.676;6.432;2023-09-08T02:52:24;12.38;;;7.88;;
37087;SDS011;23002;52.676;6.432;2023-09-08T02:54:52;13.80;;;8.25;;
37087;SDS011;23002;52.676;6.432;2023-09-08T02:57:19;12.48;;;7.28;;
37087;SDS011;23002;52.676;6.432;2023-09-08T02:59:49;14.90;;;7.85;;
37087;SDS011;23002;52.676;6.432;2023-09-08T03:02:17;13.60;;;7.57;;
37087;SDS011;23002;52.676;6.432;2023-09-08T03:04:44;13.05;;;8.02;;
37087;SDS011;23002;52.676;6.432;2023-09-08T03:07:12;15.15;;;8.52;;
37087;SDS011;23002;52.676;6.432;2023-09-08T03:09:39;13.57;;;8.38;;
37087;SDS011;23002;52.676;6.432;2023-09-08T03:12:06;12.32;;;8.00;;
37087;SDS011;23002;52.676;6.432;2023-09-08T03:14:33;12.32;;;8.38;;
37087;SDS011;23002;52.676;6.432;2023-09-08T03:17:00;14.60;;;8.90;;
37087;SDS011;23002;52.676;6.432;2023-09-08T03:19:28;12.57;;;8.15;;
37087;SDS011;23002;52.676;6.432;2023-09-08T03:21:55;12.00;;;7.90;;
37087;SDS011;23002;52.676;6.432;2023-09-08T03:24:22;12.38;;;8.32;;
37087;SDS011;23002;52.676;6.432;2023-09-08T03:26:49;16.13;;;9.05;;
37087;SDS011;23002;52.676;6.432;2023-09-08T03:29:16;15.55;;;9.95;;
37087;SDS011;23002;52.676;6.432;2023-09-08T03:31:43;11.68;;;7.72;;
37087;SDS011;23002;52.676;6.432;2023-09-08T03:34:11;14.00;;;8.60;;
37087;SDS011;23002;52.676;6.432;2023-09-08T03:36:39;14.15;;;8.27;;
37087;SDS011;23002;52.676;6.432;2023-09-08T03:39:06;16.92;;;8.60;;
37087;SDS011;23002;52.676;6.432;2023-09-08T03:41:35;13.23;;;8.93;;
37087;SDS011;23002;52.676;6.432;2023-09-08T03:44:02;17.05;;;8.68;;
37087;SDS011;23002;52.676;6.432;2023-09-08T03:46:30;16.35;;;9.05;;
37087;SDS011;23002;52.676;6.432;2023-09-08T03:48:57;14.73;;;8.77;;
37087;SDS011;23002;52.676;6.432;2023-09-08T03:51:27;14.00;;;8.90;;
37087;SDS011;23002;52.676;6.432;2023-09-08T03:53:55;13.98;;;8.70;;
37087;SDS011;23002;52.676;6.432;2023-09-08T03:56:23;15.13;;;8.65;;
37087;SDS011;23002;52.676;6.432;2023-09-08T03:58:50;13.70;;;8.73;;
37087;SDS011;23002;52.676;6.432;2023-09-08T04:01:17;15.43;;;8.18;;
37087;SDS011;23002;52.676;6.432;2023-09-08T04:03:44;14.57;;;8.85;;
37087;SDS011;23002;52.676;6.432;2023-09-08T04:06:12;14.15;;;8.18;;
37087;SDS011;23002;52.676;6.432;2023-09-08T04:08:39;12.95;;;8.98;;
37087;SDS011;23002;52.676;6.432;2023-09-08T04:11:06;14.38;;;8.82;;
37087;SDS011;23002;52.676;6.432;2023-09-08T04:13:33;16.02;;;8.35;;
37087;SDS011;23002;52.676;6.432;2023-09-08T04:16:01;13.85;;;8.48;;
37087;SDS011;23002;52.676;6.432;2023-09-08T04:18:28;13.07;;;9.45;;
37087;SDS011;23002;52.676;6.432;2023-09-08T04:20:55;15.23;;;9.25;;
37087;SDS011;23002;52.676;6.432;2023-09-08T04:23:22;12.70;;;8.85;;
37087;SDS011;23002;52.676;6.432;2023-09-08T04:25:49;16.95;;;10.02;;
37087;SDS011;23002;52.676;6.432;2023-09-08T04:28:16;18.08;;;9.88;;
37087;SDS011;23002;52.676;6.432;2023-09-08T04:30:43;15.43;;;9.50;;
37087;SDS011;23002;52.676;6.432;2023-09-08T04:33:11;17.80;;;9.68;;
37087;SDS011;23002;52.676;6.432;2023-09-08T04:35:38;15.57;;;9.75;;
37087;SDS011;23002;52.676;6.432;2023-09-08T04:38:05;17.80;;;10.80;;
37087;SDS011;23002;52.676;6.432;2023-09-08T04:40:33;15.93;;;10.00;;
37087;SDS011;23002;52.676;6.432;2023-09-08T04:43:00;15.63;;;10.25;;
37087;SDS011;23002;52.676;6.432;2023-09-08T04:45:27;17.35;;;9.73;;
37087;SDS011;23002;52.676;6.432;2023-09-08T04:47:54;16.60;;;10.32;;
37087;SDS011;23002;52.676;6.432;2023-09-08T04:50:21;20.40;;;9.95;;
37087;SDS011;23002;52.676;6.432;2023-09-08T04:52:49;18.63;;;11.02;;
37087;SDS011;23002;52.676;6.432;2023-09-08T04:55:16;19.98;;;10.23;;
37087;SDS011;23002;52.676;6.432;2023-09-08T04:57:45;18.45;;;10.32;;
37087;SDS011;23002;52.676;6.432;2023-09-08T05:00:13;16.98;;;9.95;;
37087;SDS011;23002;52.676;6.432;2023-09-08T05:02:40;17.75;;;10.48;;
37087;SDS011;23002;52.676;6.432;2023-09-08T05:05:07;17.23;;;10.48;;
37087;SDS011;23002;52.676;6.432;2023-09-08T05:07:34;17.02;;;10.50;;
37087;SDS011;23002;52.676;6.432;2023-09-08T05:10:02;17.10;;;9.70;;
37087;SDS011;23002;52.676;6.432;2023-09-08T05:12:29;21.42;;;10.52;;
37087;SDS011;23002;52.676;6.432;2023-09-08T05:14:56;14.63;;;9.88;;
37087;SDS011;23002;52.676;6.432;2023-09-08T05:17:26;16.23;;;9.85;;
37087;SDS011;23002;52.676;6.432;2023-09-08T05:19:53;16.88;;;11.68;;
37087;SDS011;23002;52.676;6.432;2023-09-08T05:22:21;18.80;;;10.70;;
37087;SDS011;23002;52.676;6.432;2023-09-08T05:24:49;15.15;;;10.18;;
37087;SDS011;23002;52.676;6.432;2023-09-08T05:27:16;18.48;;;10.88;;
37087;SDS011;23002;52.676;6.432;2023-09-08T05:29:43;19.38;;;11.55;;
37087;SDS011;23002;52.676;6.432;2023-09-08T05:32:11;17.42;;;10.93;;
37087;SDS011;23002;52.676;6.432;2023-09-08T05:34:38;18.70;;;11.40;;
37087;SDS011;23002;52.676;6.432;2023-09-08T05:37:05;15.35;;;10.00;;
37087;SDS011;23002;52.676;6.432;2023-09-08T05:39:32;15.15;;;10.30;;
37087;SDS011;23002;52.676;6.432;2023-09-08T05:41:59;17.92;;;10.23;;
37087;SDS011;23002;52.676;6.432;2023-09-08T05:44:26;17.25;;;11.05;;
37087;SDS011;23002;52.676;6.432;2023-09-08T05:46:54;16.60;;;10.35;;
37087;SDS011;23002;52.676;6.432;2023-09-08T05:49:21;17.67;;;10.75;;
37087;SDS011;23002;52.676;6.432;2023-09-08T05:51:48;15.70;;;10.15;;
37087;SDS011;23002;52.676;6.432;2023-09-08T05:54:15;18.20;;;10.65;;
37087;SDS011;23002;52.676;6.432;2023-09-08T05:56:43;16.83;;;10.35;;
37087;SDS011;23002;52.676;6.432;2023-09-08T05:59:10;17.15;;;10.90;;
37087;SDS011;23002;52.676;6.432;2023-09-08T06:01:38;16.23;;;9.93;;
37087;SDS011;23002;52.676;6.432;2023-09-08T06:04:05;13.68;;;9.32;;
37087;SDS011;23002;52.676;6.432;2023-09-08T06:06:32;14.93;;;9.63;;
37087;SDS011;23002;52.676;6.432;2023-09-08T06:08:59;15.15;;;9.38;;
37087;SDS011;23002;52.676;6.432;2023-09-08T06:11:27;15.43;;;9.60;;
37087;SDS011;23002;52.676;6.432;2023-09-08T06:13:54;15.95;;;9.35;;
37087;SDS011;23002;52.676;6.432;2023-09-08T06:16:26;16.35;;;9.60;;
37087;SDS011;23002;52.676;6.432;2023-09-08T06:18:53;16.88;;;9.20;;
37087;SDS011;23002;52.676;6.432;2023-09-08T06:21:20;13.45;;;9.20;;
37087;SDS011;23002;52.676;6.432;2023-09-08T06:23:47;15.90;;;9.13;;
37087;SDS011;23002;52.676;6.432;2023-09-08T06:26:15;12.98;;;9.25;;
37087;SDS011;23002;52.676;6.432;2023-09-08T06:28:42;14.13;;;9.00;;
37087;SDS011;23002;52.676;6.432;2023-09-08T06:31:10;13.57;;;8.98;;
37087;SDS011;23002;52.676;6.432;2023-09-08T06:33:37;10.55;;;8.25;;
37087;SDS011;23002;52.676;6.432;2023-09-08T06:36:05;13.30;;;9.15;;
37087;SDS011;23002;52.676;6.432;2023-09-08T06:38:33;15.13;;;8.93;;
37087;SDS011;23002;52.676;6.432;2023-09-08T06:41:01;14.85;;;8.50;;
37087;SDS011;23002;52.676;6.432;2023-09-08T06:43:28;14.50;;;8.80;;
37087;SDS011;23002;52.676;6.432;2023-09-08T06:45:55;13.75;;;8.43;;
37087;SDS011;23002;52.676;6.432;2023-09-08T06:48:22;15.18;;;8.80;;
37087;SDS011;23002;52.676;6.432;2023-09-08T06:50:52;13.27;;;7.97;;
37087;SDS011;23002;52.676;6.432;2023-09-08T06:53:20;13.37;;;8.43;;
37087;SDS011;23002;52.676;6.432;2023-09-08T06:55:48;10.93;;;7.53;;
37087;SDS011;23002;52.676;6.432;2023-09-08T06:58:15;11.20;;;8.07;;
37087;SDS011;23002;52.676;6.432;2023-09-08T07:00:42;10.95;;;7.15;;
37087;SDS011;23002;52.676;6.432;2023-09-08T07:03:09;11.60;;;7.25;;
37087;SDS011;23002;52.676;6.432;2023-09-08T07:05:38;12.52;;;6.45;;
37087;SDS011;23002;52.676;6.432;2023-09-08T07:08:06;14.20;;;7.28;;
37087;SDS011;23002;52.676;6.432;2023-09-08T07:10:33;10.32;;;7.00;;
37087;SDS011;23002;52.676;6.432;2023-09-08T07:13:01;12.38;;;5.85;;
37087;SDS011;23002;52.676;6.432;2023-09-08T07:15:28;7.85;;;5.75;;
37087;SDS011;23002;52.676;6.432;2023-09-08T07:17:55;10.80;;;6.40;;
37087;SDS011;23002;52.676;6.432;2023-09-08T07:20:22;10.25;;;5.93;;
37087;SDS011;23002;52.676;6.432;2023-09-08T07:22:50;7.88;;;6.05;;
37087;SDS011;23002;52.676;6.432;2023-09-08T07:25:17;8.90;;;5.03;;
37087;SDS011;23002;52.676;6.432;2023-09-08T07:27:44;7.95;;;5.30;;
37087;SDS011;23002;52.676;6.432;2023-09-08T07:30:11;7.95;;;4.70;;
37087;SDS011;23002;52.676;6.432;2023-09-08T07:32:39;7.00;;;5.00;;
37087;SDS011;23002;52.676;6.432;2023-09-08T07:35:06;8.82;;;5.30;;
37087;SDS011;23002;52.676;6.432;2023-09-08T07:37:40;7.20;;;5.15;;
37087;SDS011;23002;52.676;6.432;2023-09-08T07:40:09;7.40;;;4.65;;
37087;SDS011;23002;52.676;6.432;2023-09-08T07:42:37;5.63;;;4.28;;
37087;SDS011;23002;52.676;6.432;2023-09-08T07:45:04;7.50;;;4.50;;
37087;SDS011;23002;52.676;6.432;2023-09-08T07:47:31;6.10;;;4.03;;
37087;SDS011;23002;52.676;6.432;2023-09-08T07:50:41;7.00;;;4.20;;
37087;SDS011;23002;52.676;6.432;2023-09-08T07:52:49;5.68;;;4.25;;
37087;SDS011;23002;52.676;6.432;2023-09-08T07:55:17;8.38;;;4.45;;
37087;SDS011;23002;52.676;6.432;2023-09-08T07:57:45;7.97;;;4.75;;
37087;SDS011;23002;52.676;6.432;2023-09-08T08:00:12;8.63;;;4.68;;
37087;SDS011;23002;52.676;6.432;2023-09-08T08:02:41;6.90;;;4.97;;
37087;SDS011;23002;52.676;6.432;2023-09-08T08:05:08;5.45;;;4.28;;
37087;SDS011;23002;52.676;6.432;2023-09-08T08:07:35;7.97;;;4.40;;
37087;SDS011;23002;52.676;6.432;2023-09-08T08:10:03;7.70;;;4.20;;
37087;SDS011;23002;52.676;6.432;2023-09-08T08:12:30;5.40;;;3.78;;
37087;SDS011;23002;52.676;6.432;2023-09-08T08:14:57;7.60;;;4.13;;
37087;SDS011;23002;52.676;6.432;2023-09-08T08:17:27;9.05;;;4.07;;
37087;SDS011;23002;52.676;6.432;2023-09-08T08:19:56;5.47;;;3.78;;
37087;SDS011;23002;52.676;6.432;2023-09-08T08:22:33;5.22;;;3.80;;
37087;SDS011;23002;52.676;6.432;2023-09-08T08:25:00;6.07;;;4.03;;
37087;SDS011;23002;52.676;6.432;2023-09-08T08:27:28;7.30;;;3.45;;
37087;SDS011;23002;52.676;6.432;2023-09-08T08:30:00;6.25;;;4.10;;
37087;SDS011;23002;52.676;6.432;2023-09-08T08:34:55;5.38;;;3.60;;
37087;SDS011;23002;52.676;6.432;2023-09-08T08:37:23;4.93;;;3.05;;
37087;SDS011;23002;52.676;6.432;2023-09-08T08:39:50;5.45;;;3.72;;
37087;SDS011;23002;52.676;6.432;2023-09-08T08:42:18;8.65;;;3.70;;
37087;SDS011;23002;52.676;6.432;2023-09-08T08:44:48;6.35;;;3.72;;
37087;SDS011;23002;52.676;6.432;2023-09-08T08:47:16;7.15;;;3.55;;
37087;SDS011;23002;52.676;6.432;2023-09-08T08:49:44;7.13;;;3.40;;
37087;SDS011;23002;52.676;6.432;2023-09-08T08:52:13;7.20;;;3.72;;
37087;SDS011;23002;52.676;6.432;2023-09-08T08:54:41;5.75;;;3.95;;
37087;SDS011;23002;52.676;6.432;2023-09-08T08:57:09;5.78;;;3.42;;
37087;SDS011;23002;52.676;6.432;2023-09-08T08:59:36;5.80;;;3.67;;
37087;SDS011;23002;52.676;6.432;2023-09-08T09:02:03;6.72;;;3.33;;
37087;SDS011;23002;52.676;6.432;2023-09-08T09:04:31;5.45;;;3.33;;
37087;SDS011;23002;52.676;6.432;2023-09-08T09:06:59;4.82;;;3.33;;
37087;SDS011;23002;52.676;6.432;2023-09-08T09:09:26;6.22;;;3.72;;
37087;SDS011;23002;52.676;6.432;2023-09-08T09:11:55;4.97;;;3.53;;
37087;SDS011;23002;52.676;6.432;2023-09-08T09:14:22;5.78;;;3.50;;
37087;SDS011;23002;52.676;6.432;2023-09-08T09:16:49;5.18;;;3.42;;
37087;SDS011;23002;52.676;6.432;2023-09-08T09:19:17;5.30;;;3.90;;
37087;SDS011;23002;52.676;6.432;2023-09-08T09:21:51;5.57;;;3.67;;
37087;SDS011;23002;52.676;6.432;2023-09-08T09:24:33;6.53;;;3.35;;
37087;SDS011;23002;52.676;6.432;2023-09-08T09:27:03;5.45;;;3.63;;
37087;SDS011;23002;52.676;6.432;2023-09-08T09:29:33;6.45;;;4.07;;
37087;SDS011;23002;52.676;6.432;2023-09-08T09:32:04;7.60;;;4.10;;
37087;SDS011;23002;52.676;6.432;2023-09-08T09:34:34;7.15;;;3.80;;
37087;SDS011;23002;52.676;6.432;2023-09-08T09:37:02;5.20;;;3.42;;
37087;SDS011;23002;52.676;6.432;2023-09-08T09:39:31;7.77;;;4.20;;
37087;SDS011;23002;52.676;6.432;2023-09-08T09:41:58;5.65;;;3.60;;
37087;SDS011;23002;52.676;6.432;2023-09-08T09:44:26;5.75;;;3.67;;
37087;SDS011;23002;52.676;6.432;2023-09-08T09:46:53;7.38;;;3.70;;
37087;SDS011;23002;52.676;6.432;2023-09-08T09:49:21;7.10;;;3.50;;
37087;SDS011;23002;52.676;6.432;2023-09-08T09:51:50;5.30;;;3.88;;
37087;SDS011;23002;52.676;6.432;2023-09-08T09:54:17;5.47;;;3.70;;
37087;SDS011;23002;52.676;6.432;2023-09-08T09:56:44;7.40;;;4.03;;
37087;SDS011;23002;52.676;6.432;2023-09-08T09:59:16;4.75;;;3.47;;
37087;SDS011;23002;52.676;6.432;2023-09-08T10:01:43;5.85;;;3.47;;
37087;SDS011;23002;52.676;6.432;2023-09-08T10:04:10;8.30;;;3.78;;
37087;SDS011;23002;52.676;6.432;2023-09-08T10:06:38;4.43;;;2.95;;
37087;SDS011;23002;52.676;6.432;2023-09-08T10:09:06;5.43;;;3.13;;
37087;SDS011;23002;52.676;6.432;2023-09-08T10:11:42;4.88;;;3.35;;
37087;SDS011;23002;52.676;6.432;2023-09-08T10:14:11;5.00;;;3.47;;
37087;SDS011;23002;52.676;6.432;2023-09-08T10:16:39;4.90;;;3.05;;
37087;SDS011;23002;52.676;6.432;2023-09-08T10:19:07;6.07;;;3.20;;
37087;SDS011;23002;52.676;6.432;2023-09-08T10:21:47;5.03;;;3.33;;
37087;SDS011;23002;52.676;6.432;2023-09-08T10:24:16;5.25;;;2.92;;
37087;SDS011;23002;52.676;6.432;2023-09-08T10:27:31;6.25;;;3.15;;
37087;SDS011;23002;52.676;6.432;2023-09-08T10:32:07;6.47;;;3.10;;
37087;SDS011;23002;52.676;6.432;2023-09-08T10:34:35;5.43;;;3.10;;
37087;SDS011;23002;52.676;6.432;2023-09-08T10:37:03;5.53;;;3.30;;
37087;SDS011;23002;52.676;6.432;2023-09-08T10:39:34;4.10;;;2.70;;
37087;SDS011;23002;52.676;6.432;2023-09-08T10:47:19;5.57;;;3.20;;
37087;SDS011;23002;52.676;6.432;2023-09-08T10:49:46;4.68;;;2.90;;
37087;SDS011;23002;52.676;6.432;2023-09-08T10:52:13;6.68;;;3.70;;
37087;SDS011;23002;52.676;6.432;2023-09-08T10:54:49;5.03;;;3.50;;
37087;SDS011;23002;52.676;6.432;2023-09-08T10:57:17;4.13;;;2.95;;
37087;SDS011;23002;52.676;6.432;2023-09-08T10:59:45;3.38;;;2.83;;
37087;SDS011;23002;52.676;6.432;2023-09-08T11:02:31;7.60;;;3.05;;
37087;SDS011;23002;52.676;6.432;2023-09-08T11:04:59;4.72;;;2.90;;
37087;SDS011;23002;52.676;6.432;2023-09-08T11:07:27;5.90;;;3.25;;
37087;SDS011;23002;52.676;6.432;2023-09-08T11:09:55;6.20;;;3.13;;
37087;SDS011;23002;52.676;6.432;2023-09-08T11:12:22;4.70;;;2.60;;
37087;SDS011;23002;52.676;6.432;2023-09-08T11:14:50;4.32;;;2.63;;
37087;SDS011;23002;52.676;6.432;2023-09-08T11:17:17;3.97;;;2.45;;
37087;SDS011;23002;52.676;6.432;2023-09-08T11:22:12;10.40;;;2.95;;
37087;SDS011;23002;52.676;6.432;2023-09-08T11:24:41;4.60;;;2.45;;
37087;SDS011;23002;52.676;6.432;2023-09-08T11:27:08;3.45;;;2.25;;
37087;SDS011;23002;52.676;6.432;2023-09-08T11:29:36;4.00;;;2.50;;
37087;SDS011;23002;52.676;6.432;2023-09-08T11:34:34;4.13;;;2.50;;
37087;SDS011;23002;52.676;6.432;2023-09-08T11:37:08;5.10;;;2.25;;
37087;SDS011;23002;52.676;6.432;2023-09-08T11:39:37;3.88;;;2.47;;
37087;SDS011;23002;52.676;6.432;2023-09-08T11:42:04;4.00;;;2.65;;
37087;SDS011;23002;52.676;6.432;2023-09-08T11:44:32;3.65;;;2.33;;
37087;SDS011;23002;52.676;6.432;2023-09-08T11:47:00;4.65;;;2.53;;
37087;SDS011;23002;52.676;6.432;2023-09-08T11:49:37;3.63;;;2.20;;
37087;SDS011;23002;52.676;6.432;2023-09-08T11:52:05;3.60;;;2.35;;
37087;SDS011;23002;52.676;6.432;2023-09-08T11:54:33;5.20;;;2.33;;
37087;SDS011;23002;52.676;6.432;2023-09-08T11:57:02;3.67;;;2.20;;
37087;SDS011;23002;52.676;6.432;2023-09-08T11:59:33;3.47;;;2.08;;
37087;SDS011;23002;52.676;6.432;2023-09-08T12:02:01;4.70;;;2.55;;
37087;SDS011;23002;52.676;6.432;2023-09-08T12:04:28;3.35;;;2.20;;
37087;SDS011;23002;52.676;6.432;2023-09-08T12:06:55;4.43;;;2.40;;
37087;SDS011;23002;52.676;6.432;2023-09-08T12:09:22;3.40;;;2.28;;
37087;SDS011;23002;52.676;6.432;2023-09-08T12:11:49;5.57;;;2.30;;
37087;SDS011;23002;52.676;6.432;2023-09-08T12:14:17;3.63;;;2.33;;
37087;SDS011;23002;52.676;6.432;2023-09-08T12:16:44;3.65;;;2.33;;
37087;SDS011;23002;52.676;6.432;2023-09-08T12:19:28;3.38;;;2.33;;
37087;SDS011;23002;52.676;6.432;2023-09-08T12:21:57;3.80;;;2.17;;
37087;SDS011;23002;52.676;6.432;2023-09-08T12:27:10;3.47;;;2.40;;
37087;SDS011;23002;52.676;6.432;2023-09-08T12:29:37;3.45;;;2.05;;
37087;SDS011;23002;52.676;6.432;2023-09-08T12:32:04;3.30;;;2.10;;
37087;SDS011;23002;52.676;6.432;2023-09-08T12:34:32;5.03;;;2.30;;
37087;SDS011;23002;52.676;6.432;2023-09-08T12:36:59;3.10;;;2.15;;
37087;SDS011;23002;52.676;6.432;2023-09-08T12:39:26;5.85;;;1.80;;
37087;SDS011;23002;52.676;6.432;2023-09-08T12:41:53;4.00;;;2.42;;
37087;SDS011;23002;52.676;6.432;2023-09-08T12:44:21;4.45;;;2.25;;
37087;SDS011;23002;52.676;6.432;2023-09-08T12:46:48;2.63;;;2.00;;
37087;SDS011;23002;52.676;6.432;2023-09-08T12:49:15;4.50;;;2.10;;
37087;SDS011;23002;52.676;6.432;2023-09-08T12:51:42;3.13;;;2.20;;
37087;SDS011;23002;52.676;6.432;2023-09-08T12:54:10;4.38;;;2.30;;
37087;SDS011;23002;52.676;6.432;2023-09-08T12:56:38;3.85;;;2.20;;
37087;SDS011;23002;52.676;6.432;2023-09-08T12:59:05;3.25;;;2.20;;
37087;SDS011;23002;52.676;6.432;2023-09-08T13:01:32;3.95;;;2.20;;
37087;SDS011;23002;52.676;6.432;2023-09-08T13:03:59;3.63;;;2.35;;
37087;SDS011;23002;52.676;6.432;2023-09-08T13:06:27;3.47;;;2.17;;
37087;SDS011;23002;52.676;6.432;2023-09-08T13:08:54;3.60;;;2.42;;
37087;SDS011;23002;52.676;6.432;2023-09-08T13:11:22;4.15;;;2.33;;
37087;SDS011;23002;52.676;6.432;2023-09-08T13:13:49;3.38;;;2.00;;
37087;SDS011;23002;52.676;6.432;2023-09-08T13:16:16;3.35;;;2.25;;
37087;SDS011;23002;52.676;6.432;2023-09-08T13:18:43;5.20;;;2.67;;
37087;SDS011;23002;52.676;6.432;2023-09-08T13:21:11;3.40;;;2.20;;
37087;SDS011;23002;52.676;6.432;2023-09-08T13:23:38;5.05;;;2.42;;
37087;SDS011;23002;52.676;6.432;2023-09-08T13:26:05;3.55;;;2.35;;
37087;SDS011;23002;52.676;6.432;2023-09-08T13:28:33;7.18;;;2.60;;
37087;SDS011;23002;52.676;6.432;2023-09-08T13:31:00;4.63;;;2.45;;
37087;SDS011;23002;52.676;6.432;2023-09-08T13:33:27;5.15;;;2.60;;
37087;SDS011;23002;52.676;6.432;2023-09-08T13:35:56;4.22;;;2.72;;
37087;SDS011;23002;52.676;6.432;2023-09-08T13:38:23;4.15;;;2.45;;
37087;SDS011;23002;52.676;6.432;2023-09-08T13:40:50;3.15;;;2.10;;
37087;SDS011;23002;52.676;6.432;2023-09-08T13:43:19;4.63;;;2.83;;
37087;SDS011;23002;52.676;6.432;2023-09-08T13:45:46;4.60;;;2.85;;
37087;SDS011;23002;52.676;6.432;2023-09-08T13:48:13;4.57;;;2.60;;
37087;SDS011;23002;52.676;6.432;2023-09-08T13:50:42;4.47;;;2.83;;
37087;SDS011;23002;52.676;6.432;2023-09-08T13:53:10;4.53;;;2.50;;
37087;SDS011;23002;52.676;6.432;2023-09-08T13:55:40;6.13;;;2.53;;
37087;SDS011;23002;52.676;6.432;2023-09-08T13:58:09;4.72;;;3.00;;
37087;SDS011;23002;52.676;6.432;2023-09-08T14:00:37;7.18;;;2.97;;
37087;SDS011;23002;52.676;6.432;2023-09-08T14:03:10;3.88;;;2.70;;
37087;SDS011;23002;52.676;6.432;2023-09-08T14:05:40;5.40;;;2.40;;
37087;SDS011;23002;52.676;6.432;2023-09-08T14:08:12;4.07;;;2.60;;
37087;SDS011;23002;52.676;6.432;2023-09-08T14:10:48;5.28;;;3.30;;
37087;SDS011;23002;52.676;6.432;2023-09-08T14:13:18;4.50;;;2.63;;
37087;SDS011;23002;52.676;6.432;2023-09-08T14:15:46;4.30;;;2.63;;
37087;SDS011;23002;52.676;6.432;2023-09-08T14:18:13;3.90;;;2.70;;
37087;SDS011;23002;52.676;6.432;2023-09-08T14:20:41;5.35;;;2.88;;
37087;SDS011;23002;52.676;6.432;2023-09-08T14:23:08;7.72;;;3.42;;
37087;SDS011;23002;52.676;6.432;2023-09-08T14:25:35;5.35;;;2.92;;
37087;SDS011;23002;52.676;6.432;2023-09-08T14:28:02;4.30;;;2.88;;
37087;SDS011;23002;52.676;6.432;2023-09-08T14:30:32;5.07;;;2.60;;
37087;SDS011;23002;52.676;6.432;2023-09-08T14:33:01;6.05;;;2.90;;
37087;SDS011;23002;52.676;6.432;2023-09-08T14:35:29;7.10;;;3.20;;
37087;SDS011;23002;52.676;6.432;2023-09-08T14:37:56;4.72;;;2.58;;
37087;SDS011;23002;52.676;6.432;2023-09-08T14:40:23;4.03;;;2.60;;
37087;SDS011;23002;52.676;6.432;2023-09-08T14:42:50;4.32;;;2.50;;
37087;SDS011;23002;52.676;6.432;2023-09-08T14:45:20;3.65;;;2.58;;
37087;SDS011;23002;52.676;6.432;2023-09-08T14:47:47;5.55;;;3.13;;
37087;SDS011;23002;52.676;6.432;2023-09-08T14:50:14;5.78;;;3.03;;
37087;SDS011;23002;52.676;6.432;2023-09-08T14:52:42;4.90;;;3.05;;
37087;SDS011;23002;52.676;6.432;2023-09-08T14:55:09;7.07;;;2.88;;
37087;SDS011;23002;52.676;6.432;2023-09-08T14:57:36;3.83;;;2.88;;
37087;SDS011;23002;52.676;6.432;2023-09-08T15:00:03;4.72;;;2.70;;
37087;SDS011;23002;52.676;6.432;2023-09-08T15:02:31;5.60;;;2.70;;
37087;SDS011;23002;52.676;6.432;2023-09-08T15:04:58;6.45;;;2.55;;
37087;SDS011;23002;52.676;6.432;2023-09-08T15:07:25;4.50;;;3.00;;